Time;durP1;ratioP1;P1;durP2;ratioP2;P2;SDS_P1;SDS_P2;PMS_P1;PMS_P2;Temp;Humidity;BMP_temperature;BMP_pressure;BME280_temperature;BME280_humidity;BME280_pressure;Samples;Min_cycle;Max_cycle;Signal;HPM_P1;HPM_P2
2022/05/23 00:00:52;;;;;;;2.05;1.95;;;;;;;;;;5095280;28;20090;-75
2022/05/23 00:03:21;;;;;;;;;;;;;;;;;;5096633;28;20472;-75
2022/05/23 00:05:47;;;;;;;2.70;2.50;;;;;;;;;;5095799;28;19951;-75
2022/05/23 00:08:12;;;;;;;2.85;2.53;;;;;;;;;;5096206;28;20028;-75
2022/05/23 00:10:38;;;;;;;2.50;2.30;;;;;;;;;;5096265;28;20117;-75
2022/05/23 00:13:03;;;;;;;3.83;2.83;;;;;;;;;;5096119;28;20062;-74
2022/05/23 00:15:29;;;;;;;2.38;2.28;;;;;;;;;;5095861;28;20478;-75
2022/05/23 00:17:55;;;;;;;2.95;2.75;;;;;;;;;;5096318;28;20529;-75
2022/05/23 00:20:22;;;;;;;3.67;3.22;;;;;;;;;;5095671;28;20437;-75
2022/05/23 00:22:47;;;;;;;4.32;3.83;;;;;;;;;;5095881;28;20367;-74
2022/05/23 00:25:12;;;;;;;3.75;3.50;;;;;;;;;;5095546;28;20035;-74
2022/05/23 00:27:40;;;;;;;4.13;3.83;;;;;;;;;;5095566;28;20019;-75
2022/05/23 00:30:11;;;;;;;3.47;3.28;;;;;;;;;;5074394;28;20063;-74
2022/05/23 00:35:21;;;;;;;4.18;3.55;;;;;;;;;;5095651;28;20055;-74
2022/05/23 00:37:51;;;;;;;6.18;4.30;;;;;;;;;;5095621;28;20063;-74
2022/05/23 00:40:35;;;;;;;5.03;4.45;;;;;;;;;;5073916;28;20040;-75
2022/05/23 00:43:13;;;;;;;3.90;3.60;;;;;;;;;;5087338;28;20109;-75
2022/05/23 00:45:40;;;;;;;4.40;3.47;;;;;;;;;;5095504;28;20437;-74
2022/05/23 00:48:06;;;;;;;3.65;3.28;;;;;;;;;;5073905;28;20044;-74
2022/05/23 00:50:33;;;;;;;4.13;3.63;;;;;;;;;;5091922;28;20032;-74
2022/05/23 00:52:59;;;;;;;4.82;4.43;;;;;;;;;;5073568;28;20106;-74
2022/05/23 00:55:26;;;;;;;5.10;4.65;;;;;;;;;;5073481;28;20479;-74
2022/05/23 00:57:55;;;;;;;4.85;4.38;;;;;;;;;;5076295;28;20047;-74
2022/05/23 01:00:22;;;;;;;4.50;4.10;;;;;;;;;;5095263;28;20028;-74
2022/05/23 01:02:52;;;;;;;5.20;4.63;;;;;;;;;;5075154;28;20027;-74
2022/05/23 01:05:17;;;;;;;5.93;4.68;;;;;;;;;;5094866;28;20047;-74
2022/05/23 01:07:43;;;;;;;5.50;5.03;;;;;;;;;;5074539;28;20032;-74
2022/05/23 01:10:09;;;;;;;5.30;4.80;;;;;;;;;;5094719;28;20390;-74
2022/05/23 01:12:35;;;;;;;5.28;4.88;;;;;;;;;;5056787;28;20036;-74
2022/05/23 01:15:01;;;;;;;5.03;4.60;;;;;;;;;;5073118;28;20037;-74
2022/05/23 01:17:27;;;;;;;5.20;4.70;;;;;;;;;;5072396;28;20049;-74
2022/05/23 01:19:55;;;;;;;5.00;4.60;;;;;;;;;;5059621;28;20046;-74
2022/05/23 01:22:38;;;;;;;5.18;4.72;;;;;;;;;;5072921;28;20024;-74
2022/05/23 01:25:17;;;;;;;5.47;4.55;;;;;;;;;;5072933;28;20394;-74
2022/05/23 01:27:42;;;;;;;4.35;4.00;;;;;;;;;;5074069;28;20042;-75
2022/05/23 01:30:08;;;;;;;4.30;3.90;;;;;;;;;;5072835;28;20034;-74
2022/05/23 01:32:43;;;;;;;4.53;4.13;;;;;;;;;;5092644;28;20437;-74
2022/05/23 01:35:09;;;;;;;4.30;4.00;;;;;;;;;;5072791;28;20041;-74
2022/05/23 01:37:35;;;;;;;4.10;3.80;;;;;;;;;;5072842;28;20040;-74
2022/05/23 01:40:09;;;;;;;4.93;4.43;;;;;;;;;;5072705;28;20052;-75
2022/05/23 01:42:42;;;;;;;4.45;4.05;;;;;;;;;;5092174;28;20390;-74
2022/05/23 01:45:11;;;;;;;4.13;3.80;;;;;;;;;;5094125;28;20028;-74
2022/05/23 01:47:36;;;;;;;4.38;4.07;;;;;;;;;;5073595;28;20479;-74
2022/05/23 01:50:02;;;;;;;4.40;4.00;;;;;;;;;;5072551;28;20043;-74
2022/05/23 01:52:50;;;;;;;4.97;4.50;;;;;;;;;;5074803;28;20039;-74
2022/05/23 01:55:19;;;;;;;4.72;4.28;;;;;;;;;;5072540;28;20055;-74
2022/05/23 01:58:00;;;;;;;5.20;4.70;;;;;;;;;;5093892;28;20393;-74
2022/05/23 02:03:10;;;;;;;5.53;4.88;;;;;;;;;;5073118;28;20051;-74
2022/05/23 02:05:36;;;;;;;6.55;5.32;;;;;;;;;;5072639;28;20391;-75
2022/05/23 02:08:01;;;;;;;5.20;4.70;;;;;;;;;;5072488;28;20062;-75
2022/05/23 02:10:27;;;;;;;5.45;4.80;;;;;;;;;;5072397;28;20025;-75
2022/05/23 02:12:56;;;;;;;5.50;4.75;;;;;;;;;;5058607;28;20123;-75
2022/05/23 02:15:23;;;;;;;6.22;4.78;;;;;;;;;;5073438;28;20398;-74
2022/05/23 02:18:05;;;;;;;5.70;5.10;;;;;;;;;;5094058;28;20097;-74
2022/05/23 02:20:30;;;;;;;5.13;4.63;;;;;;;;;;5093970;28;20032;-74
2022/05/23 02:22:56;;;;;;;5.20;4.70;;;;;;;;;;5075505;28;20385;-74
2022/05/23 02:25:23;;;;;;;5.95;4.38;;;;;;;;;;5076064;28;20521;-75
2022/05/23 02:27:49;;;;;;;4.40;4.00;;;;;;;;;;5075608;28;20028;-75
2022/05/23 02:30:14;;;;;;;4.90;4.60;;;;;;;;;;5078405;28;20036;-75
2022/05/23 02:32:40;;;;;;;5.30;4.80;;;;;;;;;;5079659;28;20032;-75
2022/05/23 02:35:09;;;;;;;4.50;4.20;;;;;;;;;;5079863;28;20032;-75
2022/05/23 02:37:35;;;;;;;5.00;4.50;;;;;;;;;;5079577;28;20029;-75
2022/05/23 02:40:01;;;;;;;4.57;4.18;;;;;;;;;;5079455;28;20032;-75
2022/05/23 02:42:28;;;;;;;5.45;4.90;;;;;;;;;;5079664;28;20028;-75
2022/05/23 02:44:54;;;;;;;6.82;5.03;;;;;;;;;;5079415;28;20032;-75
2022/05/23 02:47:23;;;;;;;6.57;5.28;;;;;;;;;;5079846;28;20020;-74
2022/05/23 02:49:50;;;;;;;5.85;5.25;;;;;;;;;;5079219;28;20032;-74
2022/05/23 02:52:32;;;;;;;8.00;5.22;;;;;;;;;;5097387;28;20409;-74
2022/05/23 02:55:05;;;;;;;5.82;5.15;;;;;;;;;;5079202;28;20039;-74
2022/05/23 02:57:30;;;;;;;6.30;4.95;;;;;;;;;;5079150;28;20130;-74
2022/05/23 02:59:56;;;;;;;5.95;5.03;;;;;;;;;;5079279;28;20043;-74
2022/05/23 03:05:06;;;;;;;6.13;5.40;;;;;;;;;;5078971;28;20066;-73
2022/05/23 03:07:31;;;;;;;5.43;4.93;;;;;;;;;;5062505;28;20055;-73
2022/05/23 03:10:00;;;;;;;6.30;5.53;;;;;;;;;;5078831;28;20038;-74
2022/05/23 03:12:27;;;;;;;6.28;5.40;;;;;;;;;;5062982;28;20127;-74
2022/05/23 03:14:53;;;;;;;6.63;5.70;;;;;;;;;;5078888;28;20039;-73
2022/05/23 03:17:20;;;;;;;7.10;5.68;;;;;;;;;;5078477;28;20150;-73
2022/05/23 03:19:46;;;;;;;6.55;5.45;;;;;;;;;;5079250;28;20070;-73
2022/05/23 03:27:40;;;;;;;5.93;5.05;;;;;;;;;;5078559;28;20457;-73
2022/05/23 03:30:17;;;;;;;5.85;5.05;;;;;;;;;;5096728;28;20438;-74
2022/05/23 03:32:51;;;;;;;5.45;4.95;;;;;;;;;;5080137;28;20423;-74
2022/05/23 03:35:16;;;;;;;5.20;4.70;;;;;;;;;;5096567;28;20066;-73
2022/05/23 03:37:42;;;;;;;6.30;5.05;;;;;;;;;;5096783;28;20024;-73
2022/05/23 03:40:08;;;;;;;5.00;4.50;;;;;;;;;;5077766;28;20552;-73
2022/05/23 03:42:37;;;;;;;4.68;4.28;;;;;;;;;;5079027;28;20036;-73
2022/05/23 03:45:03;;;;;;;8.48;5.20;;;;;;;;;;5078778;28;20377;-75
2022/05/23 03:47:37;;;;;;;7.80;5.53;;;;;;;;;;5096932;28;20421;-75
2022/05/23 03:50:09;;;;;;;10.10;5.72;;;;;;;;;;5062481;28;20043;-75
2022/05/23 03:52:34;;;;;;;9.20;5.93;;;;;;;;;;5078749;28;20044;-73
2022/05/23 03:55:00;;;;;;;10.02;6.18;;;;;;;;;;5077945;28;20110;-73
2022/05/23 03:57:25;;;;;;;10.10;5.90;;;;;;;;;;5077991;28;20044;-73
2022/05/23 03:59:52;;;;;;;9.07;5.93;;;;;;;;;;5096018;28;20024;-73
2022/05/23 04:02:20;;;;;;;10.85;6.63;;;;;;;;;;5095980;28;20454;-73
2022/05/23 04:04:46;;;;;;;13.50;8.23;;;;;;;;;;5077539;28;20028;-73
2022/05/23 04:07:36;;;;;;;14.48;8.07;;;;;;;;;;5057107;28;20528;-73
2022/05/23 04:10:16;;;;;;;9.68;6.45;;;;;;;;;;5077265;28;20036;-73
2022/05/23 04:12:42;;;;;;;9.23;5.95;;;;;;;;;;5077247;28;20542;-73
2022/05/23 04:15:08;;;;;;;10.23;5.97;;;;;;;;;;5077495;28;20028;-73
2022/05/23 04:17:36;;;;;;;9.82;5.53;;;;;;;;;;5077070;28;20044;-74
2022/05/23 04:20:01;;;;;;;6.13;4.60;;;;;;;;;;5077513;28;20055;-74
2022/05/23 04:22:28;;;;;;;4.50;4.18;;;;;;;;;;5077691;28;20398;-73
2022/05/23 04:25:07;;;;;;;4.35;3.95;;;;;;;;;;5077323;28;20458;-74
2022/05/23 04:27:37;;;;;;;5.80;3.78;;;;;;;;;;5077195;28;20024;-74
2022/05/23 04:30:04;;;;;;;4.30;3.90;;;;;;;;;;5076865;28;20036;-74
2022/05/23 04:35:20;;;;;;;4.18;3.78;;;;;;;;;;5076885;28;20066;-74
2022/05/23 04:37:48;;;;;;;4.25;3.75;;;;;;;;;;5075740;28;20031;-73
2022/05/23 04:40:34;;;;;;;4.18;3.63;;;;;;;;;;5059984;28;20040;-74
2022/05/23 04:43:01;;;;;;;3.08;2.88;;;;;;;;;;5059535;28;20036;-73
2022/05/23 04:45:27;;;;;;;3.30;3.10;;;;;;;;;;5075944;28;20031;-73
2022/05/23 04:50:55;;;;;;;3.10;2.80;;;;;;;;;;5075647;28;20028;-73
2022/05/23 04:53:21;;;;;;;2.78;2.58;;;;;;;;;;5075044;28;20469;-73
2022/05/23 04:56:00;;;;;;;3.17;2.88;;;;;;;;;;5075699;28;20494;-73
2022/05/23 04:58:26;;;;;;;2.95;2.75;;;;;;;;;;5075727;28;20628;-73
2022/05/23 05:00:53;;;;;;;2.70;2.05;;;;;;;;;;5075683;28;20035;-73
2022/05/23 05:03:19;;;;;;;2.70;2.17;;;;;;;;;;5075522;28;20050;-73
2022/05/23 05:05:48;;;;;;;2.80;2.33;;;;;;;;;;5075615;28;20493;-73
2022/05/23 05:08:13;;;;;;;3.72;2.47;;;;;;;;;;5058927;28;20068;-73
2022/05/23 05:10:42;;;;;;;3.40;2.45;;;;;;;;;;5075489;28;20028;-73
2022/05/23 05:13:08;;;;;;;2.83;2.63;;;;;;;;;;5093567;28;20114;-74
2022/05/23 05:15:33;;;;;;;3.80;2.45;;;;;;;;;;5075154;28;20162;-74
2022/05/23 05:17:59;;;;;;;2.88;2.67;;;;;;;;;;5075291;28;20040;-73
2022/05/23 05:20:29;;;;;;;2.63;2.42;;;;;;;;;;5075218;28;20482;-73
2022/05/23 05:22:57;;;;;;;2.55;2.35;;;;;;;;;;5093658;28;20032;-74
2022/05/23 05:25:41;;;;;;;2.90;2.58;;;;;;;;;;5093708;28;20089;-73
2022/05/23 05:28:11;;;;;;;;;;;;;;;;;;5075646;28;20035;-73
2022/05/23 05:30:41;;;;;;;3.13;2.35;;;;;;;;;;5058460;28;19908;-73
2022/05/23 05:33:10;;;;;;;2.20;2.03;;;;;;;;;;5093290;28;20089;-73
2022/05/23 05:35:38;;;;;;;2.47;2.28;;;;;;;;;;5093218;28;20036;-73
2022/05/23 05:38:03;;;;;;;3.78;2.42;;;;;;;;;;5093201;28;20474;-73
2022/05/23 05:40:30;;;;;;;2.22;2.03;;;;;;;;;;5093365;28;20035;-73
2022/05/23 05:43:01;;;;;;;2.88;1.73;;;;;;;;;;5093048;28;20058;-73
2022/05/23 05:45:30;;;;;;;2.38;2.17;;;;;;;;;;5074898;28;20485;-73
2022/05/23 05:48:02;;;;;;;2.92;2.72;;;;;;;;;;5059223;28;20021;-73
2022/05/23 05:50:30;;;;;;;2.28;2.05;;;;;;;;;;5074878;28;20406;-73
2022/05/23 05:53:11;;;;;;;2.95;2.67;;;;;;;;;;5092931;28;20028;-73
2022/05/23 05:55:39;;;;;;;2.70;2.40;;;;;;;;;;5074891;28;20423;-74
2022/05/23 05:58:04;;;;;;;3.33;2.05;;;;;;;;;;5074795;28;20436;-73
2022/05/23 06:00:33;;;;;;;3.30;2.47;;;;;;;;;;5074661;28;20402;-73
2022/05/23 06:02:58;;;;;;;2.97;2.45;;;;;;;;;;5057803;28;20299;-73
2022/05/23 06:05:28;;;;;;;2.42;2.28;;;;;;;;;;5074685;28;20040;-73
2022/05/23 06:13:47;;;;;;;1.90;1.75;;;;;;;;;;5074460;28;20036;-74
2022/05/23 06:16:41;;;;;;;2.50;2.30;;;;;;;;;;5063206;28;20049;-74
2022/05/23 06:19:27;;;;;;;2.33;2.13;;;;;;;;;;5093179;28;20040;-73
2022/05/23 06:22:05;;;;;;;2.45;1.85;;;;;;;;;;5075570;28;20393;-74
2022/05/23 06:24:31;;;;;;;1.95;1.77;;;;;;;;;;5075242;28;20036;-74
2022/05/23 06:27:06;;;;;;;2.15;2.05;;;;;;;;;;5067811;28;20024;-74
2022/05/23 06:30:00;;;;;;;2.35;1.85;;;;;;;;;;5082359;28;20028;-74
2022/05/23 06:32:34;;;;;;;2.30;2.20;;;;;;;;;;5074866;28;20470;-74
2022/05/23 06:35:00;;;;;;;2.30;2.20;;;;;;;;;;5075027;28;20047;-74
2022/05/23 06:37:25;;;;;;;3.40;2.22;;;;;;;;;;5092808;28;20031;-74
2022/05/23 06:40:05;;;;;;;1.75;1.67;;;;;;;;;;5059916;28;20559;-74
2022/05/23 06:42:56;;;;;;;1.60;1.50;;;;;;;;;;5092944;28;20054;-74
2022/05/23 06:45:39;;;;;;;1.90;1.80;;;;;;;;;;5094071;28;20131;-74
2022/05/23 06:48:34;;;;;;;2.50;2.30;;;;;;;;;;4992375;28;20037;-74
2022/05/23 06:51:05;;;;;;;2.40;1.73;;;;;;;;;;5075671;28;20039;-74
2022/05/23 06:53:34;;;;;;;2.00;1.80;;;;;;;;;;5075563;28;20524;-74
2022/05/23 06:56:18;;;;;;;2.10;1.30;;;;;;;;;;5075600;28;20073;-74
2022/05/23 06:58:46;;;;;;;1.77;1.67;;;;;;;;;;5075558;28;20127;-74
2022/05/23 07:01:24;;;;;;;1.55;1.45;;;;;;;;;;5075443;28;20444;-74
2022/05/23 07:04:08;;;;;;;1.77;1.67;;;;;;;;;;5093678;28;20058;-74
2022/05/23 07:12:22;;;;;;;1.42;1.33;;;;;;;;;;5075994;28;20378;-74
2022/05/23 07:14:50;;;;;;;1.65;1.55;;;;;;;;;;5075441;28;20071;-74
2022/05/23 07:17:17;;;;;;;1.50;1.40;;;;;;;;;;5078796;28;20440;-74
2022/05/23 07:20:11;;;;;;;1.50;1.02;;;;;;;;;;5072183;28;20111;-74
2022/05/23 07:22:38;;;;;;;1.60;1.50;;;;;;;;;;5078643;28;20044;-74
2022/05/23 07:25:03;;;;;;;1.50;1.40;;;;;;;;;;5078662;28;20528;-74
2022/05/23 07:27:30;;;;;;;1.42;1.33;;;;;;;;;;5078630;28;20043;-74
2022/05/23 07:29:55;;;;;;;1.20;1.20;;;;;;;;;;5078535;28;20020;-74
2022/05/23 07:32:23;;;;;;;1.23;1.13;;;;;;;;;;5078494;28;20050;-74
2022/05/23 07:34:48;;;;;;;1.30;1.20;;;;;;;;;;5078520;28;20456;-74
2022/05/23 07:37:15;;;;;;;2.35;1.30;;;;;;;;;;5078370;28;20399;-74
2022/05/23 07:39:41;;;;;;;1.23;1.10;;;;;;;;;;5061891;28;20119;-74
2022/05/23 07:42:25;;;;;;;1.05;1.05;;;;;;;;;;5078270;28;20032;-74
2022/05/23 07:44:53;;;;;;;2.25;1.30;;;;;;;;;;5077679;28;20031;-74
2022/05/23 07:47:20;;;;;;;1.30;1.00;;;;;;;;;;5078800;28;20024;-74
2022/05/23 07:50:10;;;;;;;1.10;1.10;;;;;;;;;;5065169;28;20036;-74
2022/05/23 07:52:35;;;;;;;1.10;1.10;;;;;;;;;;5078123;28;20031;-74
2022/05/23 08:00:39;;;;;;;0.70;0.70;;;;;;;;;;5078793;28;20043;-74
2022/05/23 08:03:24;;;;;;;1.17;1.08;;;;;;;;;;5077937;28;20073;-75
2022/05/23 08:06:11;;;;;;;1.30;1.17;;;;;;;;;;5078214;28;20043;-75
2022/05/23 08:08:36;;;;;;;0.95;0.95;;;;;;;;;;5094534;28;20033;-75
2022/05/23 08:11:05;;;;;;;0.90;0.90;;;;;;;;;;5060062;28;20111;-75
2022/05/23 08:13:37;;;;;;;1.20;1.20;;;;;;;;;;5076610;28;20035;-75
2022/05/23 08:16:03;;;;;;;1.38;1.10;;;;;;;;;;5059798;28;20048;-74
2022/05/23 08:18:29;;;;;;;1.17;1.10;;;;;;;;;;5076632;28;20036;-75
2022/05/23 08:20:56;;;;;;;0.80;0.80;;;;;;;;;;5076532;28;20039;-73
2022/05/23 08:23:31;;;;;;;1.02;0.90;;;;;;;;;;5094539;28;20024;-75
2022/05/23 08:26:10;;;;;;;1.75;0.93;;;;;;;;;;5076500;28;20093;-75
2022/05/23 08:28:40;;;;;;;;;;;;;;;;;;5076858;28;20494;-75
2022/05/23 08:31:05;;;;;;;0.68;0.68;;;;;;;;;;5076402;28;19934;-75
2022/05/23 08:33:41;;;;;;;0.93;0.93;;;;;;;;;;5076248;28;20035;-75
2022/05/23 08:36:24;;;;;;;1.38;0.77;;;;;;;;;;5076220;28;20363;-75
2022/05/23 08:38:50;;;;;;;0.70;0.70;;;;;;;;;;5076167;28;20036;-75
2022/05/23 08:41:28;;;;;;;0.75;0.75;;;;;;;;;;5076012;28;20028;-75
2022/05/23 08:44:15;;;;;;;0.85;0.73;;;;;;;;;;5075963;28;20042;-75
2022/05/23 08:47:00;;;;;;;0.60;0.60;;;;;;;;;;5076001;28;20040;-75
2022/05/23 08:49:38;;;;;;;0.60;0.60;;;;;;;;;;5075977;28;20051;-75
2022/05/23 08:52:11;;;;;;;0.52;0.52;;;;;;;;;;5075896;28;20119;-75
2022/05/23 08:54:40;;;;;;;0.80;0.65;;;;;;;;;;5075854;28;20547;-75
2022/05/23 08:57:50;;;;;;;0.60;0.60;;;;;;;;;;5093824;28;20039;-75
2022/05/23 09:00:19;;;;;;;0.70;0.70;;;;;;;;;;5075798;28;20036;-75
2022/05/23 09:02:57;;;;;;;1.23;0.90;;;;;;;;;;5075671;28;20367;-75
2022/05/23 09:05:32;;;;;;;1.35;0.60;;;;;;;;;;5075542;28;20490;-75
2022/05/23 09:08:05;;;;;;;1.10;0.80;;;;;;;;;;5093777;28;20047;-75
2022/05/23 09:10:32;;;;;;;0.75;0.70;;;;;;;;;;5093390;28;20032;-75
2022/05/23 09:12:57;;;;;;;0.80;0.80;;;;;;;;;;5075214;28;20020;-75
2022/05/23 09:15:23;;;;;;;1.42;0.85;;;;;;;;;;5075102;28;20521;-75
2022/05/23 09:17:53;;;;;;;0.70;0.70;;;;;;;;;;5093391;28;20129;-75
2022/05/23 09:20:27;;;;;;;0.60;0.60;;;;;;;;;;5093402;28;20121;-75
2022/05/23 09:22:54;;;;;;;0.80;0.80;;;;;;;;;;5074829;28;20043;-75
2022/05/23 09:25:22;;;;;;;1.75;0.77;;;;;;;;;;5075685;28;20136;-75
2022/05/23 09:28:11;;;;;;;0.52;0.52;;;;;;;;;;5093399;28;20063;-75
2022/05/23 09:30:39;;;;;;;0.50;0.50;;;;;;;;;;5063416;28;20032;-74
2022/05/23 09:33:12;;;;;;;0.77;0.60;;;;;;;;;;5093189;28;20433;-77
2022/05/23 09:35:47;;;;;;;1.00;0.95;;;;;;;;;;5093091;28;20036;-75
2022/05/23 09:38:25;;;;;;;3.72;0.75;;;;;;;;;;5092552;28;20385;-75
2022/05/23 09:49:52;;;;;;;0.65;0.52;;;;;;;;;;5093033;28;20371;-75
2022/05/23 09:52:17;;;;;;;0.60;0.60;;;;;;;;;;5075001;28;20066;-75
2022/05/23 09:54:52;;;;;;;11.82;1.48;;;;;;;;;;5074371;28;20074;-75
2022/05/23 09:57:23;;;;;;;0.65;0.60;;;;;;;;;;5092805;28;20040;-75
2022/05/23 09:59:57;;;;;;;0.88;0.68;;;;;;;;;;5092651;28;20044;-75
2022/05/23 10:02:29;;;;;;;0.60;0.60;;;;;;;;;;5092645;28;20055;-75
2022/05/23 10:04:55;;;;;;;0.93;0.80;;;;;;;;;;5074351;28;20043;-75
2022/05/23 10:07:21;;;;;;;0.68;0.63;;;;;;;;;;5092621;28;20031;-75
2022/05/23 10:10:01;;;;;;;1.30;0.70;;;;;;;;;;5074600;28;20470;-75
2022/05/23 10:12:49;;;;;;;0.68;0.68;;;;;;;;;;5084262;28;20055;-75
2022/05/23 10:15:22;;;;;;;0.88;0.70;;;;;;;;;;5092521;28;20048;-75
2022/05/23 10:17:58;;;;;;;0.82;0.80;;;;;;;;;;5092550;28;20067;-75
2022/05/23 10:20:26;;;;;;;0.80;0.80;;;;;;;;;;5092248;28;20028;-75
2022/05/23 10:22:59;;;;;;;0.82;0.82;;;;;;;;;;5092562;28;20031;-75
2022/05/23 10:25:25;;;;;;;0.90;0.65;;;;;;;;;;5074285;28;20440;-75
2022/05/23 10:27:57;;;;;;;1.00;0.80;;;;;;;;;;5092288;28;20024;-75
2022/05/23 10:30:24;;;;;;;0.95;0.95;;;;;;;;;;5074191;28;20043;-75
2022/05/23 10:32:52;;;;;;;0.70;0.70;;;;;;;;;;5057927;28;20026;-75
2022/05/23 10:35:23;;;;;;;0.82;0.82;;;;;;;;;;5092174;28;20040;-75
2022/05/23 10:37:50;;;;;;;1.63;0.80;;;;;;;;;;5074302;28;20127;-75
2022/05/23 10:43:06;;;;;;;0.98;0.88;;;;;;;;;;5092003;28;20126;-75
2022/05/23 10:45:33;;;;;;;0.85;0.82;;;;;;;;;;5092248;28;20040;-75
2022/05/23 10:47:58;;;;;;;0.90;0.90;;;;;;;;;;5092344;28;20031;-75
2022/05/23 10:50:41;;;;;;;0.70;0.70;;;;;;;;;;5075586;28;20028;-75
2022/05/23 10:53:25;;;;;;;0.77;0.77;;;;;;;;;;5095906;28;20040;-76
2022/05/23 10:56:09;;;;;;;0.95;0.80;;;;;;;;;;5077942;28;20036;-75
2022/05/23 10:58:43;;;;;;;1.00;1.00;;;;;;;;;;5077700;28;20035;-76
2022/05/23 11:01:18;;;;;;;1.15;0.90;;;;;;;;;;5096171;28;20474;-75
2022/05/23 11:03:49;;;;;;;1.08;1.00;;;;;;;;;;5096106;28;20127;-75
2022/05/23 11:06:20;;;;;;;1.00;0.93;;;;;;;;;;5095945;28;20043;-76
2022/05/23 11:08:47;;;;;;;1.17;0.95;;;;;;;;;;5095809;28;20035;-75
2022/05/23 11:11:25;;;;;;;1.65;1.00;;;;;;;;;;5095988;28;20024;-75
2022/05/23 11:14:08;;;;;;;1.08;0.98;;;;;;;;;;5077582;28;20093;-75
2022/05/23 11:16:43;;;;;;;1.27;1.17;;;;;;;;;;5095225;28;20397;-75
2022/05/23 11:19:15;;;;;;;1.13;1.10;;;;;;;;;;5095702;28;20043;-75
2022/05/23 11:21:40;;;;;;;0.98;0.98;;;;;;;;;;5095613;28;20082;-75
2022/05/23 11:24:09;;;;;;;1.13;1.03;;;;;;;;;;5095534;28;20066;-75
2022/05/23 11:26:39;;;;;;;1.73;1.10;;;;;;;;;;5077606;28;20273;-75
2022/05/23 11:34:54;;;;;;;1.10;1.00;;;;;;;;;;5095602;28;20036;-76
2022/05/23 11:39:48;;;;;;;1.08;1.08;;;;;;;;;;5095332;28;20031;-76
2022/05/23 11:42:15;;;;;;;1.00;1.00;;;;;;;;;;5095113;28;20470;-76
2022/05/23 11:44:44;;;;;;;0.80;0.80;;;;;;;;;;5095190;28;20496;-75
2022/05/23 11:47:15;;;;;;;2.00;1.00;;;;;;;;;;5095025;28;20505;-75
2022/05/23 11:49:41;;;;;;;0.90;0.90;;;;;;;;;;5077144;28;20428;-76
2022/05/23 11:52:16;;;;;;;2.03;0.93;;;;;;;;;;5095251;28;20410;-76
2022/05/23 11:54:42;;;;;;;1.58;1.02;;;;;;;;;;5094983;28;20043;-75
2022/05/23 11:57:13;;;;;;;0.90;0.90;;;;;;;;;;5094814;28;20424;-75
2022/05/23 11:59:38;;;;;;;0.93;0.93;;;;;;;;;;5095044;28;20036;-76
2022/05/23 12:02:06;;;;;;;2.43;1.30;;;;;;;;;;5094298;28;20084;-77
2022/05/23 12:04:32;;;;;;;1.20;1.10;;;;;;;;;;5095268;28;20270;-75
2022/05/23 12:06:57;;;;;;;0.95;0.95;;;;;;;;;;5095757;28;20466;-74
2022/05/23 12:09:25;;;;;;;1.65;0.90;;;;;;;;;;5095824;28;20092;-74
2022/05/23 12:11:51;;;;;;;1.35;1.08;;;;;;;;;;5095610;28;20028;-74
2022/05/23 12:14:43;;;;;;;1.67;1.02;;;;;;;;;;5077634;28;20469;-75
2022/05/23 12:17:11;;;;;;;2.25;0.98;;;;;;;;;;5095121;28;20097;-75
2022/05/23 12:19:39;;;;;;;0.90;0.90;;;;;;;;;;5077183;28;20440;-75
2022/05/23 12:22:20;;;;;;;0.70;0.70;;;;;;;;;;5095532;28;20050;-75
2022/05/23 12:24:58;;;;;;;1.10;0.95;;;;;;;;;;5077428;28;20085;-75
2022/05/23 12:27:28;;;;;;;0.95;0.90;;;;;;;;;;5077486;28;20032;-75
2022/05/23 12:30:11;;;;;;;1.35;1.08;;;;;;;;;;5093153;28;20107;-75
2022/05/23 12:32:38;;;;;;;1.23;1.13;;;;;;;;;;5093122;28;20044;-75
2022/05/23 12:35:05;;;;;;;1.20;0.60;;;;;;;;;;5074975;28;20039;-75
2022/05/23 12:37:36;;;;;;;0.70;0.70;;;;;;;;;;5093157;28;20051;-75
2022/05/23 12:40:01;;;;;;;;;;;;;;;;;;5076156;28;20442;-75
2022/05/23 12:42:27;;;;;;;1.85;0.88;;;;;;;;;;5093973;28;20002;-75
2022/05/23 12:45:06;;;;;;;1.67;0.80;;;;;;;;;;5094209;28;20111;-75
2022/05/23 12:47:35;;;;;;;0.87;0.87;;;;;;;;;;5095415;28;20040;-75
2022/05/23 12:50:00;;;;;;;1.02;0.90;;;;;;;;;;5094918;28;20389;-75
2022/05/23 12:52:41;;;;;;;2.75;1.00;;;;;;;;;;5059996;28;20032;-75
2022/05/23 12:55:23;;;;;;;0.73;0.73;;;;;;;;;;5076844;28;20036;-75
2022/05/23 12:57:49;;;;;;;1.25;0.90;;;;;;;;;;5095027;28;20048;-75
2022/05/23 13:00:27;;;;;;;1.00;0.80;;;;;;;;;;5094542;28;20042;-75
2022/05/23 13:03:11;;;;;;;0.63;0.60;;;;;;;;;;5094815;28;20075;-75
2022/05/23 13:05:40;;;;;;;1.05;0.68;;;;;;;;;;5076871;28;20127;-75
2022/05/23 13:08:06;;;;;;;0.70;0.70;;;;;;;;;;5094517;28;20103;-75
2022/05/23 13:10:36;;;;;;;1.05;0.80;;;;;;;;;;5094692;28;20036;-75
2022/05/23 13:13:04;;;;;;;0.80;0.80;;;;;;;;;;5075408;28;20043;-75
2022/05/23 13:15:30;;;;;;;1.67;0.80;;;;;;;;;;5093269;28;20145;-74
2022/05/23 13:22:05;;;;;;;0.98;0.90;;;;;;;;;;5093216;28;20169;-74
2022/05/23 13:23:29;;;;;;;1.77;0.98;;;;;;;;;;5093077;28;20068;-74
2022/05/23 13:25:55;;;;;;;1.77;0.80;;;;;;;;;;5093386;28;20027;-74
2022/05/23 13:28:20;;;;;;;0.90;0.90;;;;;;;;;;5093417;28;20114;-74
2022/05/23 13:30:47;;;;;;;0.80;0.80;;;;;;;;;;5093255;28;20036;-74
2022/05/23 13:33:15;;;;;;;0.80;0.80;;;;;;;;;;5074987;28;20063;-74
2022/05/23 13:35:41;;;;;;;2.67;0.93;;;;;;;;;;5075062;28;20032;-74
2022/05/23 13:38:14;;;;;;;1.02;0.80;;;;;;;;;;5092899;28;20040;-75
2022/05/23 13:40:45;;;;;;;0.90;0.90;;;;;;;;;;5093073;28;20031;-75
2022/05/23 13:43:11;;;;;;;4.22;1.00;;;;;;;;;;5092877;28;20039;-74
2022/05/23 13:45:39;;;;;;;1.33;0.80;;;;;;;;;;5092997;28;20036;-74
2022/05/23 13:48:26;;;;;;;1.13;0.90;;;;;;;;;;5092684;28;20114;-75
2022/05/23 13:50:57;;;;;;;0.90;0.90;;;;;;;;;;5093063;28;20032;-75
2022/05/23 13:53:30;;;;;;;0.80;0.65;;;;;;;;;;5092969;28;20512;-75
2022/05/23 13:55:57;;;;;;;0.70;0.70;;;;;;;;;;5092700;28;20028;-75
2022/05/23 13:58:27;;;;;;;0.60;0.60;;;;;;;;;;5092718;28;20031;-74
2022/05/23 14:00:52;;;;;;;;;;;;;;;;;;5093440;28;20035;-74
2022/05/23 14:03:17;;;;;;;;;;;;;;;;;;5093361;28;19915;-74
2022/05/23 14:05:43;;;;;;;;;;;;;;;;;;5093368;28;20401;-74
2022/05/23 14:08:08;;;;;;;;;;;;;;;;;;5093420;28;19969;-74
2022/05/23 14:10:33;;;;;;;;;;;;;;;;;;5093379;28;19912;-74
2022/05/23 14:12:58;;;;;;;;;;;;;;;;;;5075258;28;19908;-74
2022/05/23 14:15:24;;;;;;;;;;;;;;;;;;5074981;28;19920;-74
2022/05/23 14:17:50;;;;;;;;;;;;;;;;;;5075075;28;19908;-74
2022/05/23 14:20:15;;;;;;;;;;;;;;;;;;5093206;28;20318;-74
2022/05/23 14:22:40;;;;;;;;;;;;;;;;;;5093017;28;20073;-74
2022/05/23 14:25:06;;;;;;;;;;;;;;;;;;5097285;28;19908;-75
2022/05/23 14:27:31;;;;;;;;;;;;;;;;;;5100049;28;19910;-74
2022/05/23 14:29:56;;;;;;;;;;;;;;;;;;5100849;28;19912;-74
2022/05/23 14:32:22;;;;;;;;;;;;;;;;;;5100816;28;19904;-74
2022/05/23 14:34:47;;;;;;;;;;;;;;;;;;5082643;28;19908;-74
2022/05/23 14:37:12;;;;;;;;;;;;;;;;;;5100797;28;20369;-74
2022/05/23 14:39:38;;;;;;;;;;;;;;;;;;5100826;28;19908;-75
2022/05/23 14:42:03;;;;;;;;;;;;;;;;;;5100690;28;19954;-75
2022/05/23 14:44:28;;;;;;;;;;;;;;;;;;5100405;28;20377;-75
2022/05/23 14:46:53;;;;;;;;;;;;;;;;;;5101271;28;19999;-75
2022/05/23 14:49:19;;;;;;;;;;;;;;;;;;5100812;28;19908;-75
2022/05/23 14:51:44;;;;;;;;;;;;;;;;;;5099593;28;19911;-75
2022/05/23 14:56:55;;;;;;;;;;;;;;;;;;5098643;28;19915;-75
2022/05/23 15:02:04;;;;;;;;;;;;;;;;;;5098538;28;19911;-75
2022/05/23 15:04:31;;;;;;;;;;;;;;;;;;5098810;28;19908;-74
2022/05/23 15:06:56;;;;;;;;;;;;;;;;;;5098515;28;19908;-74
2022/05/23 15:09:21;;;;;;;;;;;;;;;;;;5098454;28;19904;-74
2022/05/23 15:11:47;;;;;;;;;;;;;;;;;;5080408;28;19988;-74
2022/05/23 15:14:12;;;;;;;;;;;;;;;;;;5098851;28;19964;-74
2022/05/23 15:16:37;;;;;;;;;;;;;;;;;;5098668;28;19916;-74
2022/05/23 15:19:02;;;;;;;;;;;;;;;;;;5098823;28;20016;-74
2022/05/23 15:21:28;;;;;;;;;;;;;;;;;;5099895;28;19914;-75
2022/05/23 15:23:53;;;;;;;;;;;;;;;;;;5100287;28;19908;-75
2022/05/23 15:26:18;;;;;;;;;;;;;;;;;;5100375;28;19908;-75
2022/05/23 15:28:43;;;;;;;;;;;;;;;;;;5082161;28;19904;-74
2022/05/23 15:31:08;;;;;;;;;;;;;;;;;;5100908;28;19991;-74
2022/05/23 15:33:34;;;;;;;;;;;;;;;;;;5100579;28;20346;-74
2022/05/23 15:36:00;;;;;;;;;;;;;;;;;;5098729;28;20034;-74
2022/05/23 15:38:25;;;;;;;;;;;;;;;;;;5097378;28;19904;-74
2022/05/23 15:40:54;;;;;;;;;;;;;;;;;;5078849;28;20278;-74
2022/05/23 15:43:19;;;;;;;;;;;;;;;;;;5096949;28;19908;-74
2022/05/23 15:45:45;;;;;;;;;;;;;;;;;;5078776;28;19915;-74
2022/05/23 15:48:12;;;;;;;;;;;;;;;;;;5097472;28;19994;-74
2022/05/23 15:50:38;;;;;;;;;;;;;;;;;;5097158;28;19944;-74
2022/05/23 15:53:04;;;;;;;;;;;;;;;;;;5097089;28;19904;-74
2022/05/23 15:55:29;;;;;;;;;;;;;;;;;;5096746;28;20399;-74
2022/05/23 15:57:54;;;;;;;;;;;;;;;;;;5096681;28;19908;-74
2022/05/23 16:00:19;;;;;;;;;;;;;;;;;;5096666;28;19918;-74
2022/05/23 16:02:51;;;;;;;;;;;;;;;;;;5097142;28;19931;-74
2022/05/23 16:05:16;;;;;;;;;;;;;;;;;;5078612;28;20431;-74
2022/05/23 16:07:41;;;;;;;;;;;;;;;;;;5061632;28;19904;-74
2022/05/23 16:10:07;;;;;;;;;;;;;;;;;;5095993;28;20385;-75
2022/05/23 16:12:32;;;;;;;;;;;;;;;;;;5096708;28;20007;-74
2022/05/23 16:14:57;;;;;;;;;;;;;;;;;;5096529;28;19915;-74
2022/05/23 16:17:22;;;;;;;;;;;;;;;;;;5096874;28;19943;-74
2022/05/23 16:19:48;;;;;;;;;;;;;;;;;;5096308;28;20345;-74
2022/05/23 16:22:13;;;;;;;;;;;;;;;;;;5097046;28;20002;-74